METAR Data
IDs: Format: Raw Decoded Include TAF

Data at: 1256 UTC 16 Sep 2019

METAR for:KTAD (Trinidad/Stokes Arpt, CO, US)
Text:KTAD 161254Z AUTO 00000KT 10SM BKN120 19/09 A3015 RMK AO2 RAB03E12 SLP126 P0000 T01940089
Temperature: 19.4°C ( 67°F)
Dewpoint: 8.9°C ( 48°F) [RH = 51%]
Pressure (altimeter):30.15 inches Hg (1021.1 mb) [Sea level pressure: 1012.6 mb]
Winds:calm
Visibility:10 or more sm (16+ km)
Ceiling:12000 feet AGL
Clouds: broken clouds at 12000 feet AGL
QC Flag:automated observation with no human augmentation